sensor_id;sensor_type;location;lat;lon;timestamp;temperature;humidity
23471;DHT22;11908;50.806;4.424;2024-03-02T00:01:12;7.30;99.90
23471;DHT22;11908;50.806;4.424;2024-03-02T00:03:38;7.20;99.90
23471;DHT22;11908;50.806;4.424;2024-03-02T00:06:04;7.30;99.90
23471;DHT22;11908;50.806;4.424;2024-03-02T00:08:30;7.30;99.90
23471;DHT22;11908;50.806;4.424;2024-03-02T00:10:58;7.40;99.90
23471;DHT22;11908;50.806;4.424;2024-03-02T00:13:24;7.30;99.90
23471;DHT22;11908;50.806;4.424;2024-03-02T00:15:55;7.30;99.90
23471;DHT22;11908;50.806;4.424;2024-03-02T00:18:32;7.30;99.90
23471;DHT22;11908;50.806;4.424;2024-03-02T00:20:58;7.30;99.90
23471;DHT22;11908;50.806;4.424;2024-03-02T00:23:26;7.20;99.90
23471;DHT22;11908;50.806;4.424;2024-03-02T00:25:54;7.30;99.90
23471;DHT22;11908;50.806;4.424;2024-03-02T00:28:21;7.30;99.90
23471;DHT22;11908;50.806;4.424;2024-03-02T00:33:34;7.30;99.90
23471;DHT22;11908;50.806;4.424;2024-03-02T00:36:05;7.20;99.90
23471;DHT22;11908;50.806;4.424;2024-03-02T00:38:32;7.30;99.90
23471;DHT22;11908;50.806;4.424;2024-03-02T00:40:59;7.30;99.90
23471;DHT22;11908;50.806;4.424;2024-03-02T00:46:15;7.20;99.90
23471;DHT22;11908;50.806;4.424;2024-03-02T00:48:54;7.30;99.90
23471;DHT22;11908;50.806;4.424;2024-03-02T00:51:21;7.20;99.90
23471;DHT22;11908;50.806;4.424;2024-03-02T00:53:47;7.10;99.90
23471;DHT22;11908;50.806;4.424;2024-03-02T00:56:13;7.20;99.90
23471;DHT22;11908;50.806;4.424;2024-03-02T00:58:39;7.10;99.90
23471;DHT22;11908;50.806;4.424;2024-03-02T01:01:05;7.20;99.90
23471;DHT22;11908;50.806;4.424;2024-03-02T01:03:33;7.10;99.90
23471;DHT22;11908;50.806;4.424;2024-03-02T01:05:59;7.20;99.90
23471;DHT22;11908;50.806;4.424;2024-03-02T01:08:24;7.20;99.90
23471;DHT22;11908;50.806;4.424;2024-03-02T01:10:51;7.20;99.90
23471;DHT22;11908;50.806;4.424;2024-03-02T01:13:17;7.20;99.90
23471;DHT22;11908;50.806;4.424;2024-03-02T01:15:43;7.20;99.90
23471;DHT22;11908;50.806;4.424;2024-03-02T01:18:09;7.20;99.90
23471;DHT22;11908;50.806;4.424;2024-03-02T01:20:35;7.30;99.90
23471;DHT22;11908;50.806;4.424;2024-03-02T01:23:00;7.30;99.90
23471;DHT22;11908;50.806;4.424;2024-03-02T01:25:26;7.30;99.90
23471;DHT22;11908;50.806;4.424;2024-03-02T01:27:52;7.30;99.90
23471;DHT22;11908;50.806;4.424;2024-03-02T01:30:18;7.30;99.90
23471;DHT22;11908;50.806;4.424;2024-03-02T01:32:43;7.30;99.90
23471;DHT22;11908;50.806;4.424;2024-03-02T01:35:09;7.30;99.90
23471;DHT22;11908;50.806;4.424;2024-03-02T01:37:35;7.20;99.90
23471;DHT22;11908;50.806;4.424;2024-03-02T01:40:01;7.20;99.90
23471;DHT22;11908;50.806;4.424;2024-03-02T01:42:28;7.20;99.90
23471;DHT22;11908;50.806;4.424;2024-03-02T01:44:53;7.10;99.90
23471;DHT22;11908;50.806;4.424;2024-03-02T01:47:19;7.20;99.90
23471;DHT22;11908;50.806;4.424;2024-03-02T01:49:45;7.20;99.90
23471;DHT22;11908;50.806;4.424;2024-03-02T01:52:11;7.10;99.90
23471;DHT22;11908;50.806;4.424;2024-03-02T01:54:37;7.20;99.90
23471;DHT22;11908;50.806;4.424;2024-03-02T01:57:02;7.10;99.90
23471;DHT22;11908;50.806;4.424;2024-03-02T01:59:28;7.20;99.90
23471;DHT22;11908;50.806;4.424;2024-03-02T02:01:54;7.30;99.90
23471;DHT22;11908;50.806;4.424;2024-03-02T02:04:20;7.30;99.90
23471;DHT22;11908;50.806;4.424;2024-03-02T02:06:52;7.20;99.90
23471;DHT22;11908;50.806;4.424;2024-03-02T02:09:18;7.20;99.90
23471;DHT22;11908;50.806;4.424;2024-03-02T02:11:44;7.20;99.90
23471;DHT22;11908;50.806;4.424;2024-03-02T02:14:09;7.20;99.90
23471;DHT22;11908;50.806;4.424;2024-03-02T02:16:36;7.20;99.90
23471;DHT22;11908;50.806;4.424;2024-03-02T02:19:01;7.20;99.90
23471;DHT22;11908;50.806;4.424;2024-03-02T02:21:27;7.30;99.90
23471;DHT22;11908;50.806;4.424;2024-03-02T02:23:53;7.30;99.90
23471;DHT22;11908;50.806;4.424;2024-03-02T02:26:19;7.40;99.90
23471;DHT22;11908;50.806;4.424;2024-03-02T02:28:44;7.30;99.90
23471;DHT22;11908;50.806;4.424;2024-03-02T02:31:15;7.40;99.90
23471;DHT22;11908;50.806;4.424;2024-03-02T02:33:41;7.20;99.90
23471;DHT22;11908;50.806;4.424;2024-03-02T02:36:07;7.30;99.90
23471;DHT22;11908;50.806;4.424;2024-03-02T02:38:36;7.20;99.90
23471;DHT22;11908;50.806;4.424;2024-03-02T02:41:03;7.20;99.90
23471;DHT22;11908;50.806;4.424;2024-03-02T02:43:28;7.30;99.90
23471;DHT22;11908;50.806;4.424;2024-03-02T02:45:54;7.30;99.90
23471;DHT22;11908;50.806;4.424;2024-03-02T02:48:20;7.20;99.90
23471;DHT22;11908;50.806;4.424;2024-03-02T02:50:46;7.30;99.90
23471;DHT22;11908;50.806;4.424;2024-03-02T02:53:14;7.30;99.90
23471;DHT22;11908;50.806;4.424;2024-03-02T02:55:40;7.10;99.90
23471;DHT22;11908;50.806;4.424;2024-03-02T02:58:06;7.10;99.90
23471;DHT22;11908;50.806;4.424;2024-03-02T03:00:32;7.10;99.90
23471;DHT22;11908;50.806;4.424;2024-03-02T03:02:58;7.20;99.90
23471;DHT22;11908;50.806;4.424;2024-03-02T03:05:23;7.20;99.90
23471;DHT22;11908;50.806;4.424;2024-03-02T03:07:49;7.10;99.90
23471;DHT22;11908;50.806;4.424;2024-03-02T03:10:16;7.00;99.90
23471;DHT22;11908;50.806;4.424;2024-03-02T03:12:42;6.90;99.90
23471;DHT22;11908;50.806;4.424;2024-03-02T03:15:09;6.80;99.90
23471;DHT22;11908;50.806;4.424;2024-03-02T03:17:35;6.80;99.90
23471;DHT22;11908;50.806;4.424;2024-03-02T03:20:01;6.80;99.90
23471;DHT22;11908;50.806;4.424;2024-03-02T03:22:29;6.90;99.90
23471;DHT22;11908;50.806;4.424;2024-03-02T03:24:55;6.80;99.90
23471;DHT22;11908;50.806;4.424;2024-03-02T03:27:21;6.90;99.90
23471;DHT22;11908;50.806;4.424;2024-03-02T03:29:47;6.90;99.90
23471;DHT22;11908;50.806;4.424;2024-03-02T03:32:12;6.90;99.90
23471;DHT22;11908;50.806;4.424;2024-03-02T03:34:38;7.00;99.90
23471;DHT22;11908;50.806;4.424;2024-03-02T03:37:04;7.00;99.90
23471;DHT22;11908;50.806;4.424;2024-03-02T03:39:30;6.90;99.90
23471;DHT22;11908;50.806;4.424;2024-03-02T03:41:55;6.90;99.90
23471;DHT22;11908;50.806;4.424;2024-03-02T03:44:21;6.90;99.90
23471;DHT22;11908;50.806;4.424;2024-03-02T03:46:47;7.00;99.90
23471;DHT22;11908;50.806;4.424;2024-03-02T03:49:12;7.00;99.90
23471;DHT22;11908;50.806;4.424;2024-03-02T03:51:38;7.00;99.90
23471;DHT22;11908;50.806;4.424;2024-03-02T03:54:04;7.00;99.90
23471;DHT22;11908;50.806;4.424;2024-03-02T03:56:30;7.00;99.90
23471;DHT22;11908;50.806;4.424;2024-03-02T03:58:55;7.00;99.90
23471;DHT22;11908;50.806;4.424;2024-03-02T04:01:21;6.90;99.90
23471;DHT22;11908;50.806;4.424;2024-03-02T04:03:48;6.90;99.90
23471;DHT22;11908;50.806;4.424;2024-03-02T04:06:13;6.90;99.90
23471;DHT22;11908;50.806;4.424;2024-03-02T04:08:41;6.80;99.90
23471;DHT22;11908;50.806;4.424;2024-03-02T04:11:07;6.80;99.90
23471;DHT22;11908;50.806;4.424;2024-03-02T04:13:33;6.70;99.90
23471;DHT22;11908;50.806;4.424;2024-03-02T04:15:59;6.70;99.90
23471;DHT22;11908;50.806;4.424;2024-03-02T04:18:25;6.70;99.90
23471;DHT22;11908;50.806;4.424;2024-03-02T04:20:50;6.70;99.90
23471;DHT22;11908;50.806;4.424;2024-03-02T04:23:16;6.60;99.90
23471;DHT22;11908;50.806;4.424;2024-03-02T04:25:42;6.60;99.90
23471;DHT22;11908;50.806;4.424;2024-03-02T04:28:07;6.60;99.90
23471;DHT22;11908;50.806;4.424;2024-03-02T04:30:33;6.50;99.90
23471;DHT22;11908;50.806;4.424;2024-03-02T04:32:59;6.50;99.90
23471;DHT22;11908;50.806;4.424;2024-03-02T04:35:24;6.40;99.90
23471;DHT22;11908;50.806;4.424;2024-03-02T04:37:51;6.50;99.90
23471;DHT22;11908;50.806;4.424;2024-03-02T04:40:16;6.50;99.90
23471;DHT22;11908;50.806;4.424;2024-03-02T04:42:42;6.50;99.90
23471;DHT22;11908;50.806;4.424;2024-03-02T04:45:08;6.40;99.90
23471;DHT22;11908;50.806;4.424;2024-03-02T04:47:34;6.40;99.90
23471;DHT22;11908;50.806;4.424;2024-03-02T04:50:00;6.40;99.90
23471;DHT22;11908;50.806;4.424;2024-03-02T04:52:26;6.40;99.90
23471;DHT22;11908;50.806;4.424;2024-03-02T04:54:54;6.40;99.90
23471;DHT22;11908;50.806;4.424;2024-03-02T04:57:42;6.40;99.90
23471;DHT22;11908;50.806;4.424;2024-03-02T05:00:09;6.40;99.90
23471;DHT22;11908;50.806;4.424;2024-03-02T05:02:35;6.30;99.90
23471;DHT22;11908;50.806;4.424;2024-03-02T05:05:01;6.30;99.90
23471;DHT22;11908;50.806;4.424;2024-03-02T05:07:26;6.20;99.90
23471;DHT22;11908;50.806;4.424;2024-03-02T05:09:52;6.20;99.90
23471;DHT22;11908;50.806;4.424;2024-03-02T05:12:18;6.20;99.90
23471;DHT22;11908;50.806;4.424;2024-03-02T05:15:02;6.30;99.90
23471;DHT22;11908;50.806;4.424;2024-03-02T05:17:28;6.30;99.90
23471;DHT22;11908;50.806;4.424;2024-03-02T05:19:53;6.20;99.90
23471;DHT22;11908;50.806;4.424;2024-03-02T05:22:19;6.20;99.90
23471;DHT22;11908;50.806;4.424;2024-03-02T05:24:45;6.20;99.90
23471;DHT22;11908;50.806;4.424;2024-03-02T05:27:10;6.10;99.90
23471;DHT22;11908;50.806;4.424;2024-03-02T05:29:36;6.10;99.90
23471;DHT22;11908;50.806;4.424;2024-03-02T05:32:02;6.00;99.90
23471;DHT22;11908;50.806;4.424;2024-03-02T05:34:28;6.00;99.90
23471;DHT22;11908;50.806;4.424;2024-03-02T05:36:54;6.10;99.90
23471;DHT22;11908;50.806;4.424;2024-03-02T05:39:20;6.20;99.90
23471;DHT22;11908;50.806;4.424;2024-03-02T05:41:46;6.10;99.90
23471;DHT22;11908;50.806;4.424;2024-03-02T05:44:11;6.10;99.90
23471;DHT22;11908;50.806;4.424;2024-03-02T05:46:37;6.10;99.90
23471;DHT22;11908;50.806;4.424;2024-03-02T05:49:03;6.20;99.90
23471;DHT22;11908;50.806;4.424;2024-03-02T05:51:29;6.10;99.90
23471;DHT22;11908;50.806;4.424;2024-03-02T05:53:54;6.10;99.90
23471;DHT22;11908;50.806;4.424;2024-03-02T05:56:20;6.10;99.90
23471;DHT22;11908;50.806;4.424;2024-03-02T05:58:46;6.10;99.90
23471;DHT22;11908;50.806;4.424;2024-03-02T06:01:23;6.10;99.90
23471;DHT22;11908;50.806;4.424;2024-03-02T06:03:55;6.10;99.90
23471;DHT22;11908;50.806;4.424;2024-03-02T06:06:21;6.10;99.90
23471;DHT22;11908;50.806;4.424;2024-03-02T06:08:52;6.00;99.90
23471;DHT22;11908;50.806;4.424;2024-03-02T06:11:19;6.00;99.90
23471;DHT22;11908;50.806;4.424;2024-03-02T06:13:45;6.00;99.90
23471;DHT22;11908;50.806;4.424;2024-03-02T06:16:10;6.00;99.90
23471;DHT22;11908;50.806;4.424;2024-03-02T06:18:36;6.00;99.90
23471;DHT22;11908;50.806;4.424;2024-03-02T06:21:02;6.00;99.90
23471;DHT22;11908;50.806;4.424;2024-03-02T06:23:28;6.10;99.90
23471;DHT22;11908;50.806;4.424;2024-03-02T06:25:54;6.10;99.90
23471;DHT22;11908;50.806;4.424;2024-03-02T06:28:20;6.00;99.90
23471;DHT22;11908;50.806;4.424;2024-03-02T06:30:46;6.00;99.90
23471;DHT22;11908;50.806;4.424;2024-03-02T06:33:12;6.10;99.90
23471;DHT22;11908;50.806;4.424;2024-03-02T06:35:37;6.10;99.90
23471;DHT22;11908;50.806;4.424;2024-03-02T06:38:03;6.10;99.90
23471;DHT22;11908;50.806;4.424;2024-03-02T06:40:29;6.00;99.90
23471;DHT22;11908;50.806;4.424;2024-03-02T06:42:55;6.10;99.90
23471;DHT22;11908;50.806;4.424;2024-03-02T06:45:20;6.20;99.90
23471;DHT22;11908;50.806;4.424;2024-03-02T06:47:46;6.10;99.90
23471;DHT22;11908;50.806;4.424;2024-03-02T06:50:12;6.00;99.90
23471;DHT22;11908;50.806;4.424;2024-03-02T06:52:37;5.90;99.90
23471;DHT22;11908;50.806;4.424;2024-03-02T06:55:04;6.00;99.90
23471;DHT22;11908;50.806;4.424;2024-03-02T06:57:30;6.10;99.90
23471;DHT22;11908;50.806;4.424;2024-03-02T06:59:56;6.10;99.90
23471;DHT22;11908;50.806;4.424;2024-03-02T07:02:24;6.10;99.90
23471;DHT22;11908;50.806;4.424;2024-03-02T07:04:55;6.10;99.90
23471;DHT22;11908;50.806;4.424;2024-03-02T07:07:21;6.30;99.90
23471;DHT22;11908;50.806;4.424;2024-03-02T07:09:47;6.50;99.90
23471;DHT22;11908;50.806;4.424;2024-03-02T07:12:13;6.70;99.90
23471;DHT22;11908;50.806;4.424;2024-03-02T07:14:39;6.80;99.90
23471;DHT22;11908;50.806;4.424;2024-03-02T07:17:23;6.80;99.90
23471;DHT22;11908;50.806;4.424;2024-03-02T07:19:50;6.70;99.90
23471;DHT22;11908;50.806;4.424;2024-03-02T07:22:15;6.80;99.90
23471;DHT22;11908;50.806;4.424;2024-03-02T07:24:42;6.90;99.90
23471;DHT22;11908;50.806;4.424;2024-03-02T07:27:12;6.90;99.90
23471;DHT22;11908;50.806;4.424;2024-03-02T07:29:38;7.00;99.90
23471;DHT22;11908;50.806;4.424;2024-03-02T07:32:04;7.10;99.90
23471;DHT22;11908;50.806;4.424;2024-03-02T07:34:30;7.10;99.90
23471;DHT22;11908;50.806;4.424;2024-03-02T07:36:56;7.10;99.90
23471;DHT22;11908;50.806;4.424;2024-03-02T07:39:22;7.10;99.90
23471;DHT22;11908;50.806;4.424;2024-03-02T07:41:48;7.10;99.90
23471;DHT22;11908;50.806;4.424;2024-03-02T07:44:13;7.30;99.90
23471;DHT22;11908;50.806;4.424;2024-03-02T07:46:43;7.40;99.90
23471;DHT22;11908;50.806;4.424;2024-03-02T07:49:09;7.60;99.90
23471;DHT22;11908;50.806;4.424;2024-03-02T07:51:35;7.80;99.90
23471;DHT22;11908;50.806;4.424;2024-03-02T07:54:01;7.90;99.90
23471;DHT22;11908;50.806;4.424;2024-03-02T07:56:27;8.10;99.90
23471;DHT22;11908;50.806;4.424;2024-03-02T07:58:54;8.50;99.90
23471;DHT22;11908;50.806;4.424;2024-03-02T08:01:20;8.50;99.90
23471;DHT22;11908;50.806;4.424;2024-03-02T08:03:46;8.60;99.90
23471;DHT22;11908;50.806;4.424;2024-03-02T08:06:14;8.90;99.90
23471;DHT22;11908;50.806;4.424;2024-03-02T08:08:43;9.10;99.90
23471;DHT22;11908;50.806;4.424;2024-03-02T08:11:08;9.20;99.90
23471;DHT22;11908;50.806;4.424;2024-03-02T08:13:34;9.50;99.90
23471;DHT22;11908;50.806;4.424;2024-03-02T08:16:00;9.70;99.90
23471;DHT22;11908;50.806;4.424;2024-03-02T08:18:28;9.90;99.90
23471;DHT22;11908;50.806;4.424;2024-03-02T08:20:54;9.90;99.90
23471;DHT22;11908;50.806;4.424;2024-03-02T08:23:21;10.00;99.90
23471;DHT22;11908;50.806;4.424;2024-03-02T08:25:47;9.90;99.90
23471;DHT22;11908;50.806;4.424;2024-03-02T08:28:12;9.60;99.90
23471;DHT22;11908;50.806;4.424;2024-03-02T08:30:38;9.60;99.90
23471;DHT22;11908;50.806;4.424;2024-03-02T08:33:04;9.70;99.90
23471;DHT22;11908;50.806;4.424;2024-03-02T08:35:31;9.80;99.90
23471;DHT22;11908;50.806;4.424;2024-03-02T08:38:01;10.00;99.90
23471;DHT22;11908;50.806;4.424;2024-03-02T08:40:27;10.20;99.90
23471;DHT22;11908;50.806;4.424;2024-03-02T08:42:53;10.60;99.90
23471;DHT22;11908;50.806;4.424;2024-03-02T08:45:19;10.80;99.90
23471;DHT22;11908;50.806;4.424;2024-03-02T08:47:46;11.30;99.90
23471;DHT22;11908;50.806;4.424;2024-03-02T08:50:11;11.20;99.90
23471;DHT22;11908;50.806;4.424;2024-03-02T08:52:37;11.20;99.90
23471;DHT22;11908;50.806;4.424;2024-03-02T08:55:03;11.10;99.90
23471;DHT22;11908;50.806;4.424;2024-03-02T08:57:29;10.90;99.90
23471;DHT22;11908;50.806;4.424;2024-03-02T08:59:54;11.00;99.90
23471;DHT22;11908;50.806;4.424;2024-03-02T09:02:20;11.20;99.90
23471;DHT22;11908;50.806;4.424;2024-03-02T09:04:46;11.60;99.90
23471;DHT22;11908;50.806;4.424;2024-03-02T09:07:12;12.00;99.90
23471;DHT22;11908;50.806;4.424;2024-03-02T09:09:39;12.40;99.90
23471;DHT22;11908;50.806;4.424;2024-03-02T09:12:05;12.20;99.90
23471;DHT22;11908;50.806;4.424;2024-03-02T09:14:31;12.20;99.90
23471;DHT22;11908;50.806;4.424;2024-03-02T09:16:57;12.70;99.90
23471;DHT22;11908;50.806;4.424;2024-03-02T09:19:23;12.60;99.90
23471;DHT22;11908;50.806;4.424;2024-03-02T09:21:48;12.40;99.90
23471;DHT22;11908;50.806;4.424;2024-03-02T09:24:15;12.20;99.90
23471;DHT22;11908;50.806;4.424;2024-03-02T09:26:41;12.00;99.90
23471;DHT22;11908;50.806;4.424;2024-03-02T09:29:07;11.40;99.90
23471;DHT22;11908;50.806;4.424;2024-03-02T09:31:33;11.40;99.90
23471;DHT22;11908;50.806;4.424;2024-03-02T09:33:58;11.60;99.90
23471;DHT22;11908;50.806;4.424;2024-03-02T09:36:24;11.50;99.90
23471;DHT22;11908;50.806;4.424;2024-03-02T09:38:50;11.40;99.90
23471;DHT22;11908;50.806;4.424;2024-03-02T09:41:16;11.50;99.90
23471;DHT22;11908;50.806;4.424;2024-03-02T09:43:41;12.10;99.90
23471;DHT22;11908;50.806;4.424;2024-03-02T09:46:09;12.50;99.90
23471;DHT22;11908;50.806;4.424;2024-03-02T09:48:36;12.70;99.90
23471;DHT22;11908;50.806;4.424;2024-03-02T09:51:02;12.50;99.90
23471;DHT22;11908;50.806;4.424;2024-03-02T09:53:33;12.30;99.90
23471;DHT22;11908;50.806;4.424;2024-03-02T09:56:00;12.20;99.90
23471;DHT22;11908;50.806;4.424;2024-03-02T09:58:26;12.20;99.90
23471;DHT22;11908;50.806;4.424;2024-03-02T10:00:51;12.00;99.90
23471;DHT22;11908;50.806;4.424;2024-03-02T10:03:19;12.90;99.90
23471;DHT22;11908;50.806;4.424;2024-03-02T10:05:44;14.20;99.90
23471;DHT22;11908;50.806;4.424;2024-03-02T10:08:10;15.50;99.90
23471;DHT22;11908;50.806;4.424;2024-03-02T10:10:38;15.50;99.90
23471;DHT22;11908;50.806;4.424;2024-03-02T10:13:08;15.10;99.90
23471;DHT22;11908;50.806;4.424;2024-03-02T10:15:34;15.70;99.90
23471;DHT22;11908;50.806;4.424;2024-03-02T10:18:00;16.20;99.90
23471;DHT22;11908;50.806;4.424;2024-03-02T10:20:27;15.90;99.90
23471;DHT22;11908;50.806;4.424;2024-03-02T10:23:15;15.90;99.90
23471;DHT22;11908;50.806;4.424;2024-03-02T10:25:43;15.30;99.90
23471;DHT22;11908;50.806;4.424;2024-03-02T10:28:09;15.20;99.90
23471;DHT22;11908;50.806;4.424;2024-03-02T10:30:35;15.50;99.90
23471;DHT22;11908;50.806;4.424;2024-03-02T10:33:02;16.10;99.90
23471;DHT22;11908;50.806;4.424;2024-03-02T10:35:28;16.50;99.90
23471;DHT22;11908;50.806;4.424;2024-03-02T10:37:58;15.90;99.90
23471;DHT22;11908;50.806;4.424;2024-03-02T10:40:24;15.40;99.90
23471;DHT22;11908;50.806;4.424;2024-03-02T10:42:50;15.60;99.90
23471;DHT22;11908;50.806;4.424;2024-03-02T10:45:20;16.10;99.90
23471;DHT22;11908;50.806;4.424;2024-03-02T10:47:49;16.90;99.90
23471;DHT22;11908;50.806;4.424;2024-03-02T10:50:15;17.00;99.90
23471;DHT22;11908;50.806;4.424;2024-03-02T10:52:41;17.60;99.90
23471;DHT22;11908;50.806;4.424;2024-03-02T10:55:11;16.70;99.90
23471;DHT22;11908;50.806;4.424;2024-03-02T10:57:42;15.50;99.90
23471;DHT22;11908;50.806;4.424;2024-03-02T11:00:12;15.00;99.90
23471;DHT22;11908;50.806;4.424;2024-03-02T11:02:51;14.70;99.90
23471;DHT22;11908;50.806;4.424;2024-03-02T11:05:27;15.10;99.90
23471;DHT22;11908;50.806;4.424;2024-03-02T11:08:00;14.90;99.90
23471;DHT22;11908;50.806;4.424;2024-03-02T11:10:34;14.40;99.90
23471;DHT22;11908;50.806;4.424;2024-03-02T11:13:04;14.00;99.90
23471;DHT22;11908;50.806;4.424;2024-03-02T11:15:31;13.80;99.90
23471;DHT22;11908;50.806;4.424;2024-03-02T11:18:00;14.00;99.90
23471;DHT22;11908;50.806;4.424;2024-03-02T11:20:26;14.90;99.90
23471;DHT22;11908;50.806;4.424;2024-03-02T11:22:52;15.60;99.90
23471;DHT22;11908;50.806;4.424;2024-03-02T11:25:28;15.80;99.90
23471;DHT22;11908;50.806;4.424;2024-03-02T11:32:58;16.30;99.90
23471;DHT22;11908;50.806;4.424;2024-03-02T11:35:28;16.20;99.90
23471;DHT22;11908;50.806;4.424;2024-03-02T11:37:56;16.50;99.90
23471;DHT22;11908;50.806;4.424;2024-03-02T11:40:25;16.40;99.90
23471;DHT22;11908;50.806;4.424;2024-03-02T11:42:51;16.30;99.90
23471;DHT22;11908;50.806;4.424;2024-03-02T11:45:26;15.50;99.90
23471;DHT22;11908;50.806;4.424;2024-03-02T11:47:54;15.20;99.90
23471;DHT22;11908;50.806;4.424;2024-03-02T11:50:49;15.30;99.90
23471;DHT22;11908;50.806;4.424;2024-03-02T11:53:15;15.30;99.90
23471;DHT22;11908;50.806;4.424;2024-03-02T11:55:42;15.50;99.90
23471;DHT22;11908;50.806;4.424;2024-03-02T11:58:14;16.20;99.90
23471;DHT22;11908;50.806;4.424;2024-03-02T12:00:42;16.70;99.90
23471;DHT22;11908;50.806;4.424;2024-03-02T12:03:11;16.80;99.90
23471;DHT22;11908;50.806;4.424;2024-03-02T12:05:37;16.90;99.90
23471;DHT22;11908;50.806;4.424;2024-03-02T12:08:05;16.40;99.90
23471;DHT22;11908;50.806;4.424;2024-03-02T12:10:32;16.50;99.90
23471;DHT22;11908;50.806;4.424;2024-03-02T12:12:59;16.50;99.90
23471;DHT22;11908;50.806;4.424;2024-03-02T12:15:27;16.40;99.90
23471;DHT22;11908;50.806;4.424;2024-03-02T12:17:58;16.40;99.90
23471;DHT22;11908;50.806;4.424;2024-03-02T12:20:25;15.50;99.90
23471;DHT22;11908;50.806;4.424;2024-03-02T12:22:55;15.50;99.90
23471;DHT22;11908;50.806;4.424;2024-03-02T12:25:21;15.70;99.90
23471;DHT22;11908;50.806;4.424;2024-03-02T12:27:50;15.60;99.90
23471;DHT22;11908;50.806;4.424;2024-03-02T12:30:19;15.60;99.90
23471;DHT22;11908;50.806;4.424;2024-03-02T12:32:45;15.20;99.90
23471;DHT22;11908;50.806;4.424;2024-03-02T12:35:12;15.00;99.90
23471;DHT22;11908;50.806;4.424;2024-03-02T12:37:48;14.60;99.90
23471;DHT22;11908;50.806;4.424;2024-03-02T12:40:14;14.30;99.90
23471;DHT22;11908;50.806;4.424;2024-03-02T12:42:40;14.10;99.90
23471;DHT22;11908;50.806;4.424;2024-03-02T12:45:08;13.90;99.90
23471;DHT22;11908;50.806;4.424;2024-03-02T12:47:34;13.90;99.90
23471;DHT22;11908;50.806;4.424;2024-03-02T12:50:01;13.70;99.90
23471;DHT22;11908;50.806;4.424;2024-03-02T12:52:27;13.80;99.90
23471;DHT22;11908;50.806;4.424;2024-03-02T12:54:53;13.90;99.90
23471;DHT22;11908;50.806;4.424;2024-03-02T12:57:25;14.10;99.90
23471;DHT22;11908;50.806;4.424;2024-03-02T12:59:52;14.40;99.90
23471;DHT22;11908;50.806;4.424;2024-03-02T13:02:18;14.70;99.90
23471;DHT22;11908;50.806;4.424;2024-03-02T13:04:44;14.80;99.90
23471;DHT22;11908;50.806;4.424;2024-03-02T13:07:11;14.70;99.90
23471;DHT22;11908;50.806;4.424;2024-03-02T13:09:39;14.60;99.90
23471;DHT22;11908;50.806;4.424;2024-03-02T13:12:05;14.40;99.90
23471;DHT22;11908;50.806;4.424;2024-03-02T13:14:35;14.30;99.90
23471;DHT22;11908;50.806;4.424;2024-03-02T13:17:01;14.20;99.90
23471;DHT22;11908;50.806;4.424;2024-03-02T13:19:29;14.10;99.90
23471;DHT22;11908;50.806;4.424;2024-03-02T13:21:56;13.90;99.90
23471;DHT22;11908;50.806;4.424;2024-03-02T13:24:23;13.90;99.90
23471;DHT22;11908;50.806;4.424;2024-03-02T13:26:51;14.10;99.90
23471;DHT22;11908;50.806;4.424;2024-03-02T13:29:21;14.20;99.90
23471;DHT22;11908;50.806;4.424;2024-03-02T13:31:46;14.10;99.90
23471;DHT22;11908;50.806;4.424;2024-03-02T13:34:12;14.00;99.90
23471;DHT22;11908;50.806;4.424;2024-03-02T13:36:38;14.00;99.90
23471;DHT22;11908;50.806;4.424;2024-03-02T13:39:04;13.90;99.90
23471;DHT22;11908;50.806;4.424;2024-03-02T13:41:36;13.80;99.90
23471;DHT22;11908;50.806;4.424;2024-03-02T13:44:02;13.60;99.90
23471;DHT22;11908;50.806;4.424;2024-03-02T13:46:28;13.50;99.90
23471;DHT22;11908;50.806;4.424;2024-03-02T13:48:54;13.60;99.90
23471;DHT22;11908;50.806;4.424;2024-03-02T13:51:21;13.50;99.90
23471;DHT22;11908;50.806;4.424;2024-03-02T13:53:46;13.50;99.90
23471;DHT22;11908;50.806;4.424;2024-03-02T13:56:12;13.50;99.90
23471;DHT22;11908;50.806;4.424;2024-03-02T13:58:38;13.70;99.90
23471;DHT22;11908;50.806;4.424;2024-03-02T14:01:05;13.80;99.90
23471;DHT22;11908;50.806;4.424;2024-03-02T14:03:31;13.70;99.90
23471;DHT22;11908;50.806;4.424;2024-03-02T14:05:57;13.60;99.90
23471;DHT22;11908;50.806;4.424;2024-03-02T14:08:23;13.70;99.90
23471;DHT22;11908;50.806;4.424;2024-03-02T14:10:49;13.50;99.90
23471;DHT22;11908;50.806;4.424;2024-03-02T14:13:15;13.30;99.90
23471;DHT22;11908;50.806;4.424;2024-03-02T14:15:41;13.20;99.90
23471;DHT22;11908;50.806;4.424;2024-03-02T14:18:07;13.20;99.90
23471;DHT22;11908;50.806;4.424;2024-03-02T14:20:36;13.20;99.90
23471;DHT22;11908;50.806;4.424;2024-03-02T14:23:03;13.10;99.90
23471;DHT22;11908;50.806;4.424;2024-03-02T14:25:32;13.10;99.90
23471;DHT22;11908;50.806;4.424;2024-03-02T14:27:59;13.10;99.90
23471;DHT22;11908;50.806;4.424;2024-03-02T14:30:25;13.00;99.90
23471;DHT22;11908;50.806;4.424;2024-03-02T14:32:50;13.10;99.90
23471;DHT22;11908;50.806;4.424;2024-03-02T14:35:16;13.10;99.90
23471;DHT22;11908;50.806;4.424;2024-03-02T14:37:43;13.10;99.90
23471;DHT22;11908;50.806;4.424;2024-03-02T14:40:09;13.10;99.90
23471;DHT22;11908;50.806;4.424;2024-03-02T14:42:36;13.10;99.90
23471;DHT22;11908;50.806;4.424;2024-03-02T14:45:02;13.10;99.90
23471;DHT22;11908;50.806;4.424;2024-03-02T14:47:31;13.40;99.90
23471;DHT22;11908;50.806;4.424;2024-03-02T14:49:58;13.60;99.90
23471;DHT22;11908;50.806;4.424;2024-03-02T14:52:23;13.60;99.90
23471;DHT22;11908;50.806;4.424;2024-03-02T14:54:49;13.70;99.90
23471;DHT22;11908;50.806;4.424;2024-03-02T14:57:15;13.80;99.90
23471;DHT22;11908;50.806;4.424;2024-03-02T14:59:40;13.90;99.90
23471;DHT22;11908;50.806;4.424;2024-03-02T15:02:08;13.90;99.90
23471;DHT22;11908;50.806;4.424;2024-03-02T15:04:34;13.90;99.90
23471;DHT22;11908;50.806;4.424;2024-03-02T15:06:59;13.80;99.90
23471;DHT22;11908;50.806;4.424;2024-03-02T15:09:25;13.70;99.90
23471;DHT22;11908;50.806;4.424;2024-03-02T15:11:51;13.40;99.90
23471;DHT22;11908;50.806;4.424;2024-03-02T15:14:16;13.30;99.90
23471;DHT22;11908;50.806;4.424;2024-03-02T15:16:42;13.20;99.90
23471;DHT22;11908;50.806;4.424;2024-03-02T15:19:08;13.20;99.90
23471;DHT22;11908;50.806;4.424;2024-03-02T15:21:33;13.20;99.90
23471;DHT22;11908;50.806;4.424;2024-03-02T15:23:59;13.00;99.90
23471;DHT22;11908;50.806;4.424;2024-03-02T15:26:25;13.00;99.90
23471;DHT22;11908;50.806;4.424;2024-03-02T15:28:51;12.90;99.90
23471;DHT22;11908;50.806;4.424;2024-03-02T15:31:18;12.90;99.90
23471;DHT22;11908;50.806;4.424;2024-03-02T15:33:44;12.80;99.90
23471;DHT22;11908;50.806;4.424;2024-03-02T15:36:10;12.80;99.90
23471;DHT22;11908;50.806;4.424;2024-03-02T15:38:36;12.90;99.90
23471;DHT22;11908;50.806;4.424;2024-03-02T15:41:03;12.70;99.90
23471;DHT22;11908;50.806;4.424;2024-03-02T15:43:29;12.70;99.90
23471;DHT22;11908;50.806;4.424;2024-03-02T15:45:56;12.70;99.90
23471;DHT22;11908;50.806;4.424;2024-03-02T15:48:22;12.50;99.90